DLH415 KIAD-EDDM
Flight info
| Callsign | DLH415 |
|---|---|
| Flight time | N/A |
| Altitude | 37000 |
| Route | JCOBY4 SWANN DCT BROSS Q419 RBV Q22 FOXWD DCT WITCH DCT EBONY DCT TUDEP/M079F370 NATT BEXET/N0451F370 DCT PELIG DCT MORAG DCT NUCHU L607 KONAN UL607 SPI DCT MOVUM T109 HAREM T104 ROKIL ROKIL1B |
| Aircraft | A388/J-SADE2E3FGHIJ3J4J5M1RWXY/LB1D1 |
Departure
| Time | 2026-05-07 23:49 |
|---|---|
| Airport | Washington Dulles International Airport (KIAD) |
Arrival
| Time | N/A |
|---|---|
| Airport | Munich Airport (EDDM) |
| Time | Latitude | Longitude | Altitude | Speed | Heading |
|---|---|---|---|---|---|
| 2026-05-07 22:21 | 38.94603 | -77.45484 | 305 ft | 0 kts | 178° |
| 2026-05-07 23:34 | 38.94608 | -77.45485 | 305 ft | 4 kts | 189° |
| 2026-05-07 23:35 | 38.94635 | -77.45483 | 306 ft | 4 kts | 180° |
| 2026-05-07 23:35 | 38.94658 | -77.45483 | 308 ft | 4 kts | 204° |
| 2026-05-07 23:35 | 38.94668 | -77.45464 | 306 ft | 4 kts | 276° |
| 2026-05-07 23:35 | 38.94664 | -77.45430 | 304 ft | 4 kts | 274° |
| 2026-05-07 23:36 | 38.94663 | -77.45417 | 305 ft | 1 kts | 270° |
| 2026-05-07 23:36 | 38.94663 | -77.45416 | 305 ft | 0 kts | 270° |
| 2026-05-07 23:40 | 38.94663 | -77.45418 | 305 ft | 1 kts | 270° |
| 2026-05-07 23:40 | 38.94663 | -77.45449 | 305 ft | 6 kts | 269° |
| 2026-05-07 23:41 | 38.94663 | -77.45512 | 305 ft | 8 kts | 269° |
| 2026-05-07 23:41 | 38.94662 | -77.45597 | 305 ft | 11 kts | 269° |
| 2026-05-07 23:41 | 38.94661 | -77.45660 | 305 ft | 6 kts | 266° |
| 2026-05-07 23:41 | 38.94646 | -77.45706 | 308 ft | 6 kts | 232° |
| 2026-05-07 23:42 | 38.94622 | -77.45726 | 306 ft | 4 kts | 185° |
| 2026-05-07 23:42 | 38.94591 | -77.45728 | 307 ft | 5 kts | 181° |
| 2026-05-07 23:42 | 38.94560 | -77.45728 | 307 ft | 4 kts | 180° |
| 2026-05-07 23:42 | 38.94534 | -77.45728 | 308 ft | 4 kts | 180° |
| 2026-05-07 23:43 | 38.94505 | -77.45728 | 307 ft | 5 kts | 179° |
| 2026-05-07 23:43 | 38.94462 | -77.45727 | 309 ft | 7 kts | 178° |
| 2026-05-07 23:43 | 38.94406 | -77.45724 | 307 ft | 9 kts | 179° |
| 2026-05-07 23:43 | 38.94341 | -77.45724 | 307 ft | 10 kts | 180° |
| 2026-05-07 23:44 | 38.94269 | -77.45726 | 307 ft | 8 kts | 182° |
| 2026-05-07 23:44 | 38.94210 | -77.45728 | 308 ft | 9 kts | 182° |
| 2026-05-07 23:44 | 38.94140 | -77.45731 | 308 ft | 11 kts | 182° |
| 2026-05-07 23:44 | 38.94062 | -77.45734 | 306 ft | 12 kts | 182° |
| 2026-05-07 23:45 | 38.93978 | -77.45736 | 306 ft | 12 kts | 179° |
| 2026-05-07 23:45 | 38.93891 | -77.45734 | 306 ft | 11 kts | 179° |
| 2026-05-07 23:45 | 38.93815 | -77.45733 | 308 ft | 12 kts | 180° |
| 2026-05-07 23:45 | 38.93733 | -77.45739 | 308 ft | 12 kts | 187° |
| 2026-05-07 23:46 | 38.93656 | -77.45765 | 307 ft | 8 kts | 203° |
| 2026-05-07 23:46 | 38.93599 | -77.45797 | 308 ft | 10 kts | 203° |
| 2026-05-07 23:46 | 38.93557 | -77.45819 | 305 ft | 0 kts | 201° |
| 2026-05-07 23:46 | 38.93556 | -77.45820 | 305 ft | 0 kts | 201° |
| 2026-05-07 23:47 | 38.93553 | -77.45821 | 305 ft | 1 kts | 201° |
| 2026-05-07 23:47 | 38.93533 | -77.45831 | 306 ft | 5 kts | 200° |
| 2026-05-07 23:47 | 38.93489 | -77.45851 | 308 ft | 8 kts | 202° |
| 2026-05-07 23:47 | 38.93464 | -77.45884 | 307 ft | 6 kts | 248° |
| 2026-05-07 23:48 | 38.93465 | -77.45935 | 306 ft | 7 kts | 283° |
| 2026-05-07 23:48 | 38.93482 | -77.46003 | 308 ft | 10 kts | 290° |
| 2026-05-07 23:48 | 38.93582 | -77.46348 | 307 ft | 85 kts | 290° |
| 2026-05-07 23:48 | 38.93883 | -77.47386 | 310 ft | 157 kts | 290° |
| 2026-05-07 23:49 | 38.94324 | -77.48841 | 462 ft | 186 kts | 289° |
| 2026-05-07 23:49 | 38.94789 | -77.50401 | 910 ft | 194 kts | 287° |
| 2026-05-07 23:49 | 38.95191 | -77.51950 | 1324 ft | 200 kts | 284° |
| 2026-05-07 23:49 | 38.95574 | -77.53735 | 1792 ft | 216 kts | 283° |
| 2026-05-07 23:50 | 38.96139 | -77.55572 | 2446 ft | 229 kts | 299° |
| 2026-05-07 23:50 | 38.97016 | -77.57355 | 2949 ft | 246 kts | 295° |
| 2026-05-07 23:50 | 38.97666 | -77.59464 | 3561 ft | 255 kts | 292° |
| 2026-05-07 23:50 | 38.98605 | -77.61331 | 4537 ft | 252 kts | 316° |
| 2026-05-07 23:51 | 39.00129 | -77.62438 | 5346 ft | 257 kts | 344° |
| 2026-05-07 23:51 | 39.01918 | -77.62479 | 6202 ft | 263 kts | 11° |
| 2026-05-07 23:51 | 39.03583 | -77.61431 | 6908 ft | 276 kts | 37° |
| 2026-05-07 23:51 | 39.04649 | -77.59776 | 7489 ft | 287 kts | 59° |
| 2026-05-07 23:52 | 39.05275 | -77.57287 | 8148 ft | 300 kts | 77° |
| 2026-05-07 23:52 | 39.05565 | -77.54638 | 8797 ft | 309 kts | 81° |
| 2026-05-07 23:52 | 39.05799 | -77.51811 | 9474 ft | 316 kts | 82° |
| 2026-05-07 23:52 | 39.06016 | -77.48993 | 10090 ft | 324 kts | 83° |
| 2026-05-07 23:53 | 39.06243 | -77.46037 | 10405 ft | 342 kts | 82° |
| 2026-05-07 23:53 | 39.06750 | -77.42974 | 10603 ft | 358 kts | 67° |
| 2026-05-07 23:53 | 39.07937 | -77.40102 | 10861 ft | 368 kts | 50° |
| 2026-05-07 23:53 | 39.09558 | -77.37651 | 11346 ft | 371 kts | 41° |
| 2026-05-07 23:54 | 39.11458 | -77.35362 | 11867 ft | 375 kts | 36° |
| 2026-05-07 23:54 | 39.13430 | -77.33150 | 12494 ft | 381 kts | 41° |
| 2026-05-07 23:54 | 39.14985 | -77.30307 | 13040 ft | 395 kts | 62° |
| 2026-05-07 23:54 | 39.15775 | -77.26883 | 13571 ft | 404 kts | 83° |
| 2026-05-07 23:55 | 39.15698 | -77.23271 | 14058 ft | 407 kts | 104° |
| 2026-05-07 23:55 | 39.14888 | -77.19796 | 14648 ft | 403 kts | 115° |
| 2026-05-07 23:55 | 39.13933 | -77.16397 | 15149 ft | 408 kts | 114° |
| 2026-05-07 23:55 | 39.13086 | -77.12870 | 15676 ft | 414 kts | 110° |
| 2026-05-07 23:56 | 39.12378 | -77.09250 | 16208 ft | 419 kts | 107° |
| 2026-05-07 23:56 | 39.11739 | -77.05551 | 15978 ft | 426 kts | 106° |
| 2026-05-07 23:56 | 39.11179 | -77.02064 | 15586 ft | 421 kts | 105° |
| 2026-05-07 23:56 | 39.10775 | -76.98463 | 15331 ft | 416 kts | 96° |
| 2026-05-07 23:57 | 39.10785 | -76.94736 | 15030 ft | 417 kts | 89° |
| 2026-05-07 23:57 | 39.10909 | -76.90994 | 14997 ft | 419 kts | 90° |
| 2026-05-07 23:57 | 39.11011 | -76.87249 | 15263 ft | 420 kts | 90° |
| 2026-05-07 23:57 | 39.11106 | -76.83482 | 15811 ft | 422 kts | 90° |
| 2026-05-07 23:58 | 39.11198 | -76.79682 | 16369 ft | 425 kts | 90° |
| 2026-05-07 23:58 | 39.11289 | -76.75867 | 16868 ft | 429 kts | 90° |
| 2026-05-07 23:58 | 39.11382 | -76.71997 | 17377 ft | 433 kts | 90° |
| 2026-05-07 23:58 | 39.11473 | -76.68162 | 17815 ft | 437 kts | 90° |
| 2026-05-07 23:59 | 39.11567 | -76.64186 | 18303 ft | 441 kts | 90° |
| 2026-05-07 23:59 | 39.11659 | -76.60218 | 18734 ft | 444 kts | 90° |
| 2026-05-07 23:59 | 39.11749 | -76.56306 | 19141 ft | 448 kts | 90° |
| 2026-05-07 23:59 | 39.11861 | -76.52260 | 19540 ft | 452 kts | 86° |
| 2026-05-08 00:00 | 39.12281 | -76.48231 | 19912 ft | 456 kts | 82° |
| 2026-05-08 00:00 | 39.12754 | -76.44186 | 20336 ft | 459 kts | 82° |
| 2026-05-08 00:00 | 39.13222 | -76.40098 | 20757 ft | 463 kts | 82° |
| 2026-05-08 00:00 | 39.13665 | -76.36174 | 21130 ft | 466 kts | 82° |
| 2026-05-08 00:01 | 39.14128 | -76.32056 | 21526 ft | 470 kts | 82° |
| 2026-05-08 00:01 | 39.14591 | -76.27914 | 21922 ft | 473 kts | 82° |
| 2026-05-08 00:01 | 39.14909 | -76.25071 | 22172 ft | 476 kts | 82° |
| 2026-05-08 00:01 | 39.15376 | -76.20888 | 22555 ft | 479 kts | 82° |
| 2026-05-08 00:02 | 39.15870 | -76.16577 | 22954 ft | 483 kts | 82° |
| 2026-05-08 00:02 | 39.16360 | -76.12339 | 23276 ft | 486 kts | 82° |
| 2026-05-08 00:02 | 39.16859 | -76.08011 | 23626 ft | 490 kts | 82° |
| 2026-05-08 00:02 | 39.17358 | -76.03662 | 23948 ft | 493 kts | 82° |
| 2026-05-08 00:03 | 39.17859 | -75.99273 | 24241 ft | 496 kts | 82° |
| 2026-05-08 00:03 | 39.18359 | -75.94869 | 24606 ft | 499 kts | 82° |
| 2026-05-08 00:03 | 39.19070 | -75.90469 | 24883 ft | 502 kts | 70° |
| 2026-05-08 00:03 | 39.20455 | -75.86355 | 25216 ft | 501 kts | 56° |
| 2026-05-08 00:04 | 39.22467 | -75.82718 | 25550 ft | 495 kts | 42° |
| 2026-05-08 00:04 | 39.24978 | -75.79756 | 25902 ft | 486 kts | 28° |
| 2026-05-08 00:04 | 39.27775 | -75.77337 | 26225 ft | 484 kts | 24° |
| 2026-05-08 00:04 | 39.30600 | -75.74910 | 26605 ft | 490 kts | 26° |
| 2026-05-08 00:05 | 39.33365 | -75.72294 | 26996 ft | 497 kts | 29° |
| 2026-05-08 00:05 | 39.36084 | -75.69503 | 27383 ft | 502 kts | 31° |
| 2026-05-08 00:05 | 39.38776 | -75.66610 | 27785 ft | 508 kts | 32° |
| 2026-05-08 00:05 | 39.41486 | -75.63640 | 28178 ft | 512 kts | 32° |
| 2026-05-08 00:06 | 39.44201 | -75.60643 | 28572 ft | 515 kts | 32° |
| 2026-05-08 00:06 | 39.46941 | -75.57617 | 28968 ft | 519 kts | 32° |
| 2026-05-08 00:06 | 39.49700 | -75.54571 | 29361 ft | 523 kts | 32° |
| 2026-05-08 00:06 | 39.52478 | -75.51503 | 29747 ft | 526 kts | 32° |
| 2026-05-08 00:07 | 39.55269 | -75.48420 | 30121 ft | 530 kts | 32° |
| 2026-05-08 00:07 | 39.58082 | -75.45309 | 30507 ft | 533 kts | 32° |
| 2026-05-08 00:07 | 39.60914 | -75.42175 | 30854 ft | 536 kts | 32° |
| 2026-05-08 00:07 | 39.63750 | -75.39030 | 31257 ft | 537 kts | 32° |
| 2026-05-08 00:08 | 39.66595 | -75.35874 | 31599 ft | 540 kts | 32° |
| 2026-05-08 00:08 | 39.69458 | -75.32695 | 31943 ft | 543 kts | 32° |
| 2026-05-08 00:08 | 39.72337 | -75.29494 | 32307 ft | 546 kts | 32° |
| 2026-05-08 00:08 | 39.75232 | -75.26272 | 32650 ft | 549 kts | 32° |
| 2026-05-08 00:09 | 39.78127 | -75.23029 | 32994 ft | 554 kts | 34° |
| 2026-05-08 00:09 | 39.80815 | -75.19454 | 33310 ft | 566 kts | 42° |
| 2026-05-08 00:09 | 39.83431 | -75.15520 | 33663 ft | 568 kts | 42° |
| 2026-05-08 00:09 | 39.86002 | -75.11695 | 33976 ft | 571 kts | 42° |
| 2026-05-08 00:10 | 39.88626 | -75.07802 | 34287 ft | 573 kts | 42° |
| 2026-05-08 00:10 | 39.91265 | -75.03881 | 34575 ft | 575 kts | 42° |
| 2026-05-08 00:10 | 39.93890 | -74.99973 | 35006 ft | 575 kts | 43° |
| 2026-05-08 00:10 | 39.96509 | -74.96007 | 35343 ft | 578 kts | 46° |
| 2026-05-08 00:11 | 39.98841 | -74.91710 | 35743 ft | 583 kts | 52° |
| 2026-05-08 00:11 | 40.01071 | -74.87292 | 36148 ft | 582 kts | 52° |
| 2026-05-08 00:11 | 40.03315 | -74.82893 | 36542 ft | 582 kts | 52° |
| 2026-05-08 00:11 | 40.05561 | -74.78493 | 36851 ft | 583 kts | 52° |
| 2026-05-08 00:12 | 40.10068 | -74.69640 | 36847 ft | 584 kts | 52° |
| 2026-05-08 00:12 | 40.14560 | -74.60776 | 36847 ft | 586 kts | 52° |
| 2026-05-08 00:13 | 40.19193 | -74.52033 | 36849 ft | 582 kts | 45° |
| 2026-05-08 00:13 | 40.24832 | -74.44624 | 36863 ft | 569 kts | 32° |
| 2026-05-08 00:14 | 40.30983 | -74.38090 | 36876 ft | 572 kts | 32° |
| 2026-05-08 00:14 | 40.37085 | -74.31529 | 36877 ft | 571 kts | 32° |
| 2026-05-08 00:15 | 40.43235 | -74.24915 | 36860 ft | 572 kts | 32° |
| 2026-05-08 00:15 | 40.49390 | -74.18291 | 36871 ft | 573 kts | 32° |
| 2026-05-08 00:16 | 40.55557 | -74.11637 | 36878 ft | 573 kts | 32° |
| 2026-05-08 00:16 | 40.61516 | -74.05192 | 36874 ft | 573 kts | 32° |
| 2026-05-08 00:17 | 40.67662 | -73.98530 | 36851 ft | 573 kts | 33° |
| 2026-05-08 00:17 | 40.73784 | -73.91877 | 36843 ft | 573 kts | 33° |
| 2026-05-08 00:18 | 40.79933 | -73.85178 | 36842 ft | 574 kts | 33° |
| 2026-05-08 00:18 | 40.85862 | -73.78143 | 36845 ft | 583 kts | 42° |
| 2026-05-08 00:19 | 40.90869 | -73.69541 | 36853 ft | 589 kts | 51° |
| 2026-05-08 00:19 | 40.95545 | -73.60747 | 36857 ft | 589 kts | 51° |
| 2026-05-08 00:20 | 41.00258 | -73.51883 | 36851 ft | 589 kts | 51° |
| 2026-05-08 00:20 | 41.04860 | -73.43169 | 36857 ft | 590 kts | 51° |
| 2026-05-08 00:21 | 41.09551 | -73.34254 | 36858 ft | 590 kts | 51° |
| 2026-05-08 00:21 | 41.14238 | -73.25320 | 36863 ft | 590 kts | 52° |
| 2026-05-08 00:22 | 41.18916 | -73.16378 | 36869 ft | 591 kts | 52° |
| 2026-05-08 00:22 | 41.23514 | -73.07564 | 36864 ft | 590 kts | 52° |
| 2026-05-08 00:23 | 41.28178 | -72.98594 | 36866 ft | 590 kts | 52° |
| 2026-05-08 00:23 | 41.32451 | -72.89272 | 36861 ft | 590 kts | 57° |
| 2026-05-08 00:24 | 41.36680 | -72.79876 | 36866 ft | 592 kts | 57° |
| 2026-05-08 00:24 | 41.40866 | -72.70535 | 36858 ft | 591 kts | 57° |
| 2026-05-08 00:25 | 41.45069 | -72.61116 | 36862 ft | 591 kts | 57° |
| 2026-05-08 00:25 | 41.49264 | -72.51677 | 36844 ft | 591 kts | 57° |
| 2026-05-08 00:26 | 41.53449 | -72.42234 | 36848 ft | 592 kts | 57° |
| 2026-05-08 00:26 | 41.57633 | -72.32761 | 36845 ft | 592 kts | 57° |
| 2026-05-08 00:27 | 41.61809 | -72.23279 | 36817 ft | 592 kts | 58° |
| 2026-05-08 00:27 | 41.65984 | -72.13767 | 36862 ft | 593 kts | 58° |
| 2026-05-08 00:28 | 41.70153 | -72.04240 | 36864 ft | 594 kts | 58° |
| 2026-05-08 00:28 | 41.74307 | -71.94716 | 36857 ft | 594 kts | 58° |
| 2026-05-08 00:29 | 41.78514 | -71.85294 | 36867 ft | 592 kts | 53° |
| 2026-05-08 00:29 | 41.83882 | -71.77051 | 36847 ft | 583 kts | 37° |
| 2026-05-08 00:30 | 41.90188 | -71.70331 | 36842 ft | 578 kts | 32° |
| 2026-05-08 00:30 | 41.96549 | -71.63710 | 36868 ft | 579 kts | 32° |
| 2026-05-08 00:31 | 42.02908 | -71.57077 | 36858 ft | 578 kts | 32° |
| 2026-05-08 00:31 | 42.09269 | -71.50437 | 36831 ft | 577 kts | 32° |
| 2026-05-08 00:32 | 42.15474 | -71.43948 | 36840 ft | 578 kts | 32° |
| 2026-05-08 00:32 | 42.20809 | -71.38353 | 36820 ft | 578 kts | 33° |
| 2026-05-08 00:33 | 42.27109 | -71.31731 | 36814 ft | 578 kts | 33° |
| 2026-05-08 00:33 | 42.31813 | -71.26776 | 36827 ft | 579 kts | 33° |
| 2026-05-08 00:34 | 42.36237 | -71.22107 | 36828 ft | 579 kts | 33° |
| 2026-05-08 00:34 | 42.42577 | -71.15399 | 36822 ft | 578 kts | 33° |
| 2026-05-08 00:35 | 42.48343 | -71.09284 | 36826 ft | 579 kts | 33° |
| 2026-05-08 00:35 | 42.54460 | -71.02780 | 36811 ft | 578 kts | 33° |
| 2026-05-08 00:36 | 42.60772 | -70.96051 | 36806 ft | 577 kts | 33° |
| 2026-05-08 00:36 | 42.67052 | -70.89230 | 36812 ft | 579 kts | 38° |
| 2026-05-08 00:37 | 42.72584 | -70.81218 | 36782 ft | 583 kts | 47° |
| 2026-05-08 00:38 | 42.79633 | -70.70086 | 36792 ft | 584 kts | 47° |
| 2026-05-08 00:38 | 42.84931 | -70.61715 | 36799 ft | 584 kts | 47° |
| 2026-05-08 00:39 | 42.91075 | -70.51944 | 36757 ft | 583 kts | 47° |
| 2026-05-08 00:39 | 42.95492 | -70.44895 | 36800 ft | 584 kts | 47° |
| 2026-05-08 00:40 | 43.00770 | -70.36448 | 36807 ft | 584 kts | 47° |
| 2026-05-08 00:40 | 43.06045 | -70.27982 | 36816 ft | 584 kts | 47° |
| 2026-05-08 00:41 | 43.11280 | -70.19556 | 36757 ft | 584 kts | 48° |
| 2026-05-08 00:41 | 43.16532 | -70.11080 | 36791 ft | 585 kts | 48° |
| 2026-05-08 00:42 | 43.21800 | -70.02550 | 36818 ft | 587 kts | 48° |
| 2026-05-08 00:42 | 43.27082 | -69.93974 | 36818 ft | 588 kts | 48° |
| 2026-05-08 00:43 | 43.32313 | -69.85456 | 36816 ft | 588 kts | 48° |
| 2026-05-08 00:43 | 43.37580 | -69.76853 | 36840 ft | 588 kts | 48° |
| 2026-05-08 00:44 | 43.42832 | -69.68251 | 36764 ft | 587 kts | 49° |
| 2026-05-08 00:44 | 43.48080 | -69.59628 | 36784 ft | 588 kts | 49° |
| 2026-05-08 00:45 | 43.53328 | -69.50980 | 36802 ft | 589 kts | 49° |
| 2026-05-08 00:45 | 43.58576 | -69.42306 | 36801 ft | 589 kts | 49° |
| 2026-05-08 00:46 | 43.63820 | -69.33613 | 36801 ft | 589 kts | 49° |
| 2026-05-08 00:46 | 43.68826 | -69.25289 | 36800 ft | 589 kts | 49° |
| 2026-05-08 00:47 | 43.74053 | -69.16572 | 36796 ft | 588 kts | 49° |
| 2026-05-08 00:47 | 43.79265 | -69.07856 | 36788 ft | 588 kts | 49° |
| 2026-05-08 00:48 | 43.84477 | -68.99112 | 36798 ft | 588 kts | 50° |
| 2026-05-08 00:48 | 43.89647 | -68.90412 | 36757 ft | 589 kts | 50° |
| 2026-05-08 00:49 | 43.94851 | -68.81630 | 36765 ft | 590 kts | 50° |
| 2026-05-08 00:49 | 44.00066 | -68.72800 | 36791 ft | 592 kts | 50° |
| 2026-05-08 00:50 | 44.05287 | -68.63934 | 36787 ft | 593 kts | 50° |
| 2026-05-08 00:50 | 44.10502 | -68.55051 | 36795 ft | 593 kts | 50° |
| 2026-05-08 00:51 | 44.15717 | -68.46141 | 36784 ft | 594 kts | 50° |
| 2026-05-08 00:51 | 44.20922 | -68.37220 | 36780 ft | 593 kts | 50° |
| 2026-05-08 00:52 | 44.26116 | -68.28290 | 36779 ft | 593 kts | 50° |
| 2026-05-08 00:52 | 44.31304 | -68.19343 | 36734 ft | 593 kts | 51° |
| 2026-05-08 00:53 | 44.36496 | -68.10360 | 36738 ft | 594 kts | 51° |
| 2026-05-08 00:53 | 44.41687 | -68.01351 | 36759 ft | 596 kts | 51° |
| 2026-05-08 00:54 | 44.46883 | -67.92306 | 36760 ft | 597 kts | 51° |
| 2026-05-08 00:54 | 44.52078 | -67.83233 | 36753 ft | 597 kts | 51° |
| 2026-05-08 00:55 | 44.57238 | -67.74192 | 36750 ft | 597 kts | 51° |
| 2026-05-08 00:55 | 44.62436 | -67.65058 | 36748 ft | 597 kts | 51° |
| 2026-05-08 00:56 | 44.67610 | -67.55934 | 36742 ft | 597 kts | 51° |
| 2026-05-08 00:56 | 44.72748 | -67.46848 | 36686 ft | 597 kts | 52° |
| 2026-05-08 00:57 | 44.77903 | -67.37701 | 36718 ft | 598 kts | 52° |
| 2026-05-08 00:57 | 44.83068 | -67.28507 | 36723 ft | 600 kts | 52° |
| 2026-05-08 00:58 | 44.88246 | -67.19274 | 36740 ft | 601 kts | 52° |
| 2026-05-08 00:58 | 44.93445 | -67.10008 | 36753 ft | 602 kts | 52° |
| 2026-05-08 00:59 | 44.98687 | -67.00785 | 36755 ft | 602 kts | 51° |
| 2026-05-08 00:59 | 45.03951 | -66.91559 | 36750 ft | 602 kts | 51° |
| 2026-05-08 01:00 | 45.09195 | -66.82342 | 36731 ft | 602 kts | 51° |
| 2026-05-08 01:00 | 45.14402 | -66.73160 | 36717 ft | 601 kts | 52° |
| 2026-05-08 01:01 | 45.19542 | -66.64065 | 36678 ft | 602 kts | 52° |
| 2026-05-08 01:01 | 45.24577 | -66.55128 | 36685 ft | 603 kts | 52° |
| 2026-05-08 01:02 | 45.29821 | -66.45788 | 36690 ft | 605 kts | 52° |
| 2026-05-08 01:02 | 45.34989 | -66.36539 | 36702 ft | 607 kts | 52° |
| 2026-05-08 01:03 | 45.40241 | -66.27103 | 36711 ft | 607 kts | 52° |
| 2026-05-08 01:03 | 45.45478 | -66.17662 | 36717 ft | 608 kts | 52° |
| 2026-05-08 01:04 | 45.50704 | -66.08209 | 36722 ft | 608 kts | 52° |
| 2026-05-08 01:04 | 45.55853 | -65.98866 | 36715 ft | 607 kts | 52° |
| 2026-05-08 01:05 | 45.61060 | -65.89384 | 36710 ft | 606 kts | 52° |
| 2026-05-08 01:05 | 45.66252 | -65.79900 | 36659 ft | 607 kts | 53° |
| 2026-05-08 01:06 | 45.71455 | -65.70362 | 36665 ft | 609 kts | 53° |
| 2026-05-08 01:06 | 45.76673 | -65.60764 | 36675 ft | 611 kts | 53° |
| 2026-05-08 01:07 | 45.81898 | -65.51119 | 36685 ft | 613 kts | 53° |
| 2026-05-08 01:07 | 45.87124 | -65.41441 | 36694 ft | 614 kts | 53° |
| 2026-05-08 01:08 | 45.92350 | -65.31729 | 36734 ft | 615 kts | 53° |
| 2026-05-08 01:08 | 45.97570 | -65.21995 | 36717 ft | 613 kts | 53° |
| 2026-05-08 01:09 | 46.02758 | -65.12286 | 36703 ft | 612 kts | 53° |
| 2026-05-08 01:09 | 46.07935 | -65.02564 | 36692 ft | 610 kts | 53° |
| 2026-05-08 01:10 | 46.13087 | -64.92856 | 36665 ft | 609 kts | 53° |
| 2026-05-08 01:10 | 46.18209 | -64.83171 | 36659 ft | 608 kts | 53° |
| 2026-05-08 01:11 | 46.23329 | -64.73456 | 36700 ft | 607 kts | 53° |
| 2026-05-08 01:11 | 46.28430 | -64.63743 | 36679 ft | 606 kts | 53° |
| 2026-05-08 01:12 | 46.33479 | -64.54097 | 36670 ft | 605 kts | 53° |
| 2026-05-08 01:12 | 46.38545 | -64.44383 | 36672 ft | 604 kts | 53° |
| 2026-05-08 01:13 | 46.43594 | -64.34668 | 36670 ft | 603 kts | 53° |
| 2026-05-08 01:13 | 46.48626 | -64.24953 | 36667 ft | 602 kts | 53° |
| 2026-05-08 01:14 | 46.53647 | -64.15225 | 36686 ft | 601 kts | 53° |
| 2026-05-08 01:14 | 46.58658 | -64.05483 | 36692 ft | 605 kts | 54° |
| 2026-05-08 01:15 | 46.63720 | -63.95607 | 36688 ft | 610 kts | 54° |
| 2026-05-08 01:15 | 46.68784 | -63.85692 | 36700 ft | 610 kts | 54° |
| 2026-05-08 01:16 | 46.73827 | -63.75781 | 36693 ft | 608 kts | 54° |
| 2026-05-08 01:16 | 46.78865 | -63.65848 | 36702 ft | 609 kts | 54° |
| 2026-05-08 01:17 | 46.83886 | -63.55911 | 36691 ft | 608 kts | 54° |
| 2026-05-08 01:17 | 46.88875 | -63.46000 | 36690 ft | 606 kts | 54° |
| 2026-05-08 01:18 | 46.93854 | -63.36077 | 36691 ft | 605 kts | 54° |
| 2026-05-08 01:18 | 46.98817 | -63.26147 | 36714 ft | 604 kts | 54° |
| 2026-05-08 01:19 | 47.03762 | -63.16219 | 36646 ft | 603 kts | 54° |
| 2026-05-08 01:19 | 47.08698 | -63.06273 | 36693 ft | 609 kts | 54° |
| 2026-05-08 01:20 | 47.13679 | -62.96203 | 36718 ft | 610 kts | 54° |
| 2026-05-08 01:20 | 47.18632 | -62.86149 | 36700 ft | 605 kts | 54° |
| 2026-05-08 01:21 | 47.23560 | -62.76110 | 36700 ft | 606 kts | 54° |
| 2026-05-08 01:21 | 47.28492 | -62.66029 | 36700 ft | 606 kts | 54° |
| 2026-05-08 01:22 | 47.33407 | -62.55943 | 36720 ft | 605 kts | 55° |
| 2026-05-08 01:22 | 47.38303 | -62.45859 | 36720 ft | 604 kts | 55° |
| 2026-05-08 01:23 | 47.43182 | -62.35775 | 36703 ft | 603 kts | 55° |
| 2026-05-08 01:23 | 47.48041 | -62.25694 | 36671 ft | 602 kts | 55° |
| 2026-05-08 01:24 | 47.52874 | -62.15630 | 36669 ft | 603 kts | 55° |
| 2026-05-08 01:24 | 47.57724 | -62.05494 | 36677 ft | 604 kts | 55° |
| 2026-05-08 01:25 | 47.62580 | -61.95309 | 36686 ft | 605 kts | 55° |
| 2026-05-08 01:25 | 47.67426 | -61.85106 | 36698 ft | 607 kts | 55° |
| 2026-05-08 01:26 | 47.71463 | -61.76578 | 36704 ft | 607 kts | 55° |
| 2026-05-08 01:26 | 47.76314 | -61.66295 | 36729 ft | 607 kts | 55° |
| 2026-05-08 01:27 | 47.81927 | -61.54347 | 36714 ft | 606 kts | 56° |
| 2026-05-08 01:27 | 47.85958 | -61.45734 | 36702 ft | 605 kts | 56° |
| 2026-05-08 01:28 | 47.90752 | -61.35456 | 36711 ft | 603 kts | 56° |
| 2026-05-08 01:28 | 47.95523 | -61.25187 | 36673 ft | 601 kts | 56° |
| 2026-05-08 01:29 | 48.00245 | -61.14986 | 36672 ft | 601 kts | 56° |
| 2026-05-08 01:29 | 48.04991 | -61.04698 | 36687 ft | 602 kts | 56° |
| 2026-05-08 01:30 | 48.09734 | -60.94374 | 36695 ft | 601 kts | 56° |
| 2026-05-08 01:30 | 48.14456 | -60.84056 | 36695 ft | 601 kts | 56° |
| 2026-05-08 01:31 | 48.19172 | -60.73714 | 36685 ft | 601 kts | 56° |
| 2026-05-08 01:31 | 48.23869 | -60.63374 | 36700 ft | 600 kts | 56° |
| 2026-05-08 01:32 | 48.28553 | -60.53024 | 36691 ft | 599 kts | 56° |
| 2026-05-08 01:32 | 48.33218 | -60.42673 | 36678 ft | 598 kts | 56° |
| 2026-05-08 01:33 | 48.37872 | -60.32311 | 36711 ft | 596 kts | 57° |
| 2026-05-08 01:33 | 48.42500 | -60.21962 | 36646 ft | 596 kts | 56° |
| 2026-05-08 01:34 | 48.47131 | -60.11572 | 36651 ft | 597 kts | 56° |
| 2026-05-08 01:34 | 48.51759 | -60.01149 | 36703 ft | 597 kts | 57° |
| 2026-05-08 01:35 | 48.56371 | -59.90719 | 36694 ft | 597 kts | 57° |
| 2026-05-08 01:35 | 48.60931 | -59.80367 | 36684 ft | 596 kts | 57° |
| 2026-05-08 01:36 | 48.65511 | -59.69931 | 36676 ft | 595 kts | 57° |
| 2026-05-08 01:36 | 48.70061 | -59.59523 | 36707 ft | 592 kts | 57° |
| 2026-05-08 01:37 | 48.74585 | -59.49132 | 36690 ft | 590 kts | 57° |
| 2026-05-08 01:37 | 48.79085 | -59.38758 | 36677 ft | 589 kts | 57° |
| 2026-05-08 01:38 | 48.83572 | -59.28375 | 36700 ft | 586 kts | 58° |
| 2026-05-08 01:38 | 48.88025 | -59.18027 | 36623 ft | 586 kts | 57° |
| 2026-05-08 01:39 | 48.92472 | -59.07656 | 36621 ft | 586 kts | 57° |
| 2026-05-08 01:39 | 48.96914 | -58.97257 | 36691 ft | 585 kts | 58° |
| 2026-05-08 01:40 | 49.01316 | -58.86910 | 36672 ft | 583 kts | 58° |
| 2026-05-08 01:40 | 49.05714 | -58.76531 | 36657 ft | 583 kts | 58° |
| 2026-05-08 01:41 | 49.10100 | -58.66140 | 36645 ft | 582 kts | 58° |
| 2026-05-08 01:41 | 49.14295 | -58.56167 | 36645 ft | 582 kts | 58° |
| 2026-05-08 01:42 | 49.18650 | -58.45772 | 36648 ft | 583 kts | 58° |
| 2026-05-08 01:42 | 49.23012 | -58.35318 | 36650 ft | 583 kts | 58° |
| 2026-05-08 01:43 | 49.27359 | -58.24864 | 36667 ft | 582 kts | 59° |
| 2026-05-08 01:43 | 49.31661 | -58.14469 | 36626 ft | 581 kts | 58° |
| 2026-05-08 01:44 | 49.35926 | -58.04129 | 36632 ft | 582 kts | 58° |
| 2026-05-08 01:44 | 49.40219 | -57.93681 | 36662 ft | 583 kts | 59° |
| 2026-05-08 01:45 | 49.44537 | -57.83131 | 36678 ft | 583 kts | 59° |